Observation data for Turkey on 05/24/2019      Previous  Date  Next       Current Mesonet Observations  Soil Data  Daily Summary Page  Observations in Plain Language
KTUR 240500Z 12009KT 23/20 A2989 RMK A01 T02250196  RH  086%=      5-min Rain = 0
KTUR 240505Z 13007KT 22/20 A2991 RMK A01 T02240197  RH  087%=      5-min Rain = 0
KTUR 240510Z 11008KT 22/20 A299 RMK A01 T02230197  RH  088%=      5-min Rain = 0
KTUR 240515Z 17016G29KT 22/19 A2991 RMK A01 T02170188  RH  086%=      5-min Rain = 0
KTUR 240520Z 21020G30KT 20/17 A2992 RMK A01 T01950167  RH  086%=      5-min Rain = 0.04
KTUR 240525Z 26012G20KT 20/16 A2991 RMK A01 T01960164  RH  084%=      5-min Rain = 0
KTUR 240530Z 28006G14KT 20/16 A2991 RMK A01 T01970162  RH  082%=      5-min Rain = 0
KTUR 240535Z 28006KT 20/16 A299 RMK A01 T02010160  RH  079%=      5-min Rain = 0
KTUR 240540Z 32004KT 20/16 A299 RMK A01 T02010161  RH  080%=      5-min Rain = 0
KTUR 240545Z 28004KT 20/16 A2991 RMK A01 T01960164  RH  084%=      5-min Rain = 0
KTUR 240550Z 00004KT 19/17 A299 RMK A01 T01940166  RH  086%=      5-min Rain = 0
KTUR 240555Z 00005KT 19/17 A299 RMK A01 T01940169  RH  088%=      5-min Rain = 0
KTUR 240600Z 18016G41KT 19/17 A2992 RMK A01 T01920169  RH  089%=      5-min Rain = 0
KTUR 240605Z 20033G48KT 16/15 A2994 RMK A01 T01640152  RH  094%=      5-min Rain = 0.27
KTUR 240610Z 18018G26KT 16/15 A2993 RMK A01 T01590153  RH  099%=      5-min Rain = 0.18
KTUR 240615Z 21013G19KT 16/16 A2995 RMK A01 T01640159  RH  099%=      5-min Rain = 0.14
KTUR 240620Z 23010G16KT 16/16 A2995 RMK A01 T01640160  RH  099%=      5-min Rain = 0.11
KTUR 240625Z 24010G16KT 17/16 A2994 RMK A01 T01650160  RH  099%=      5-min Rain = 0.01
KTUR 240630Z 26006KT 17/16 A2993 RMK A01 T01660162  RH  100%=      5-min Rain = 0
KTUR 240635Z 24006KT 17/16 A2993 RMK A01 T01680164  RH  100%=      5-min Rain = 0
KTUR 240640Z 25006KT 17/17 A2994 RMK A01 T01710167  RH  100%=      5-min Rain = 0
KTUR 240645Z 27006KT 17/17 A2993 RMK A01 T01730169  RH  100%=      5-min Rain = 0.01
KTUR 240650Z 28005KT 17/17 A2993 RMK A01 T01740169  RH  100%=      5-min Rain = 0
KTUR 240655Z 29008KT 17/17 A2994 RMK A01 T01740169  RH  100%=      5-min Rain = 0
KTUR 240700Z 31006KT 17/17 A2993 RMK A01 T01740170  RH  100%=      5-min Rain = 0.01
KTUR 240705Z 35005KT 17/17 A2993 RMK A01 T01740170  RH  100%=      5-min Rain = 0.01
KTUR 240710Z 03007KT 18/17 A2991 RMK A01 T01750170  RH  100%=      5-min Rain = 0
KTUR 240715Z 04007KT 18/17 A2992 RMK A01 T01750171  RH  100%=      5-min Rain = 0
KTUR 240720Z 06007KT 18/17 A2992 RMK A01 T01750171  RH  100%=      5-min Rain = 0
KTUR 240725Z 04006KT 18/17 A2992 RMK A01 T01750171  RH  100%=      5-min Rain = 0
KTUR 240730Z 05006KT 18/17 A2992 RMK A01 T01760172  RH  100%=      5-min Rain = 0
KTUR 240735Z 07005KT 18/17 A2992 RMK A01 T01770173  RH  100%=      5-min Rain = 0
KTUR 240740Z 07005KT 18/17 A2992 RMK A01 T01770173  RH  100%=      5-min Rain = 0
KTUR 240745Z 07003KT 18/17 A2993 RMK A01 T01780174  RH  100%=      5-min Rain = 0.01
KTUR 240750Z 17003KT 18/17 A2993 RMK A01 T01780174  RH  100%=      5-min Rain = 0
KTUR 240755Z 15004KT 18/17 A2992 RMK A01 T01770173  RH  100%=      5-min Rain = 0
KTUR 240800Z 18007KT 18/17 A2993 RMK A01 T01760172  RH  100%=      5-min Rain = 0.01
KTUR 240805Z 21005G11KT 17/17 A2993 RMK A01 T01730169  RH  100%=      5-min Rain = 0.02
KTUR 240810Z 05005KT 18/17 A2992 RMK A01 T01750172  RH  100%=      5-min Rain = 0
KTUR 240815Z 17007KT 18/17 A2994 RMK A01 T01760173  RH  100%=      5-min Rain = 0
KTUR 240820Z 21008KT 17/17 A2994 RMK A01 T01740170  RH  100%=      5-min Rain = 0
KTUR 240825Z 21006KT 17/17 A2994 RMK A01 T01730169  RH  100%=      5-min Rain = 0
KTUR 240830Z 17004KT 17/17 A2994 RMK A01 T01720169  RH  100%=      5-min Rain = 0
KTUR 240835Z 17006KT 17/17 A2994 RMK A01 T01730170  RH  100%=      5-min Rain = 0
KTUR 240840Z 17004KT 17/17 A2994 RMK A01 T01730169  RH  100%=      5-min Rain = 0
KTUR 240845Z 14004KT 17/17 A2993 RMK A01 T01720168  RH  100%=      5-min Rain = 0.01
KTUR 240850Z 21004KT 17/17 A2992 RMK A01 T01720169  RH  100%=      5-min Rain = 0
KTUR 240855Z 22003KT 17/17 A2991 RMK A01 T01720169  RH  100%=      5-min Rain = 0
KTUR 240900Z 16005KT 17/17 A2992 RMK A01 T01720169  RH  100%=      5-min Rain = 0
KTUR 240905Z 19005KT 17/17 A2992 RMK A01 T01730169  RH  100%=      5-min Rain = 0
KTUR 240910Z 15006KT 17/17 A2991 RMK A01 T01720168  RH  100%=      5-min Rain = 0
KTUR 240915Z 20009KT 17/17 A2993 RMK A01 T01720168  RH  100%=      5-min Rain = 0
KTUR 240920Z 23006KT 17/17 A2992 RMK A01 T01720168  RH  100%=      5-min Rain = 0
KTUR 240925Z 20006KT 17/17 A2992 RMK A01 T01730169  RH  100%=      5-min Rain = 0
KTUR 240930Z 20005KT 17/17 A2992 RMK A01 T01720168  RH  100%=      5-min Rain = 0
KTUR 240935Z 21006KT 17/17 A2992 RMK A01 T01730169  RH  100%=      5-min Rain = 0
KTUR 240940Z 22010G17KT 17/17 A2994 RMK A01 T01730170  RH  100%=      5-min Rain = 0
KTUR 240945Z 23011KT 17/17 A2996 RMK A01 T01730169  RH  100%=      5-min Rain = 0
KTUR 240950Z 22003G10KT 17/17 A2993 RMK A01 T01730169  RH  100%=      5-min Rain = 0.07
KTUR 240955Z 23010G15KT 17/17 A2995 RMK A01 T01730169  RH  100%=      5-min Rain = 0.05
KTUR 241000Z 25006KT 17/17 A2996 RMK A01 T01700167  RH  100%=      5-min Rain = 0
KTUR 241005Z 24003KT 17/17 A2996 RMK A01 T01710167  RH  100%=      5-min Rain = 0
KTUR 241010Z 17004KT 17/17 A2997 RMK A01 T01710168  RH  100%=      5-min Rain = 0.01
KTUR 241015Z 13004KT 17/17 A2995 RMK A01 T01710168  RH  100%=      5-min Rain = 0.01
KTUR 241020Z 19002KT 17/17 A2995 RMK A01 T01730169  RH  100%=      5-min Rain = 0
KTUR 241025Z 13006KT 17/17 A2994 RMK A01 T01740170  RH  100%=      5-min Rain = 0
KTUR 241030Z 12007KT 18/17 A2994 RMK A01 T01750171  RH  100%=      5-min Rain = 0
KTUR 241035Z 13005KT 18/17 A2994 RMK A01 T01750171  RH  100%=      5-min Rain = 0.01
KTUR 241040Z 21003KT 18/17 A2994 RMK A01 T01760172  RH  100%=      5-min Rain = 0
KTUR 241045Z 15004KT 18/17 A2994 RMK A01 T01760172  RH  100%=      5-min Rain = 0
KTUR 241050Z 14003KT 18/17 A2993 RMK A01 T01760172  RH  100%=      5-min Rain = 0
KTUR 241055Z 11005KT 18/17 A2993 RMK A01 T01760172  RH  100%=      5-min Rain = 0
KTUR 241100Z 10003KT 18/17 A2993 RMK A01 T01780173  RH  100%=      5-min Rain = 0
KTUR 241105Z 12003KT 18/17 A2993 RMK A01 T01780174  RH  100%=      5-min Rain = 0
KTUR 241110Z 13004KT 18/17 A2992 RMK A01 T01780174  RH  100%=      5-min Rain = 0
KTUR 241115Z 14006KT 18/17 A2992 RMK A01 T01780174  RH  100%=      5-min Rain = 0
KTUR 241120Z 16005KT 18/17 A2992 RMK A01 T01780174  RH  100%=      5-min Rain = 0
KTUR 241125Z 15005KT 18/17 A2992 RMK A01 T01770173  RH  100%=      5-min Rain = 0
KTUR 241130Z 16004KT 18/17 A2992 RMK A01 T01760172  RH  100%=      5-min Rain = 0
KTUR 241135Z 16005KT 18/17 A2993 RMK A01 T01760171  RH  100%=      5-min Rain = 0
KTUR 241140Z 15004KT 18/17 A2993 RMK A01 T01760172  RH  100%=      5-min Rain = 0
KTUR 241145Z 16005KT 18/17 A2993 RMK A01 T01760172  RH  100%=      5-min Rain = 0
KTUR 241150Z 16005KT 18/17 A2994 RMK A01 T01760172  RH  100%=      5-min Rain = 0
KTUR 241155Z 16004KT 18/17 A2994 RMK A01 T01760172  RH  100%=      5-min Rain = 0
KTUR 241200Z 16004KT 18/17 A2994 RMK A01 T01760171  RH  100%=      5-min Rain = 0
KTUR 241205Z 16004KT 18/17 A2994 RMK A01 T01760171  RH  100%=      5-min Rain = 0
KTUR 241210Z 16004KT 18/17 A2994 RMK A01 T01760171  RH  100%=      5-min Rain = 0
KTUR 241215Z 18003KT 18/17 A2994 RMK A01 T01760172  RH  100%=      5-min Rain = 0
KTUR 241220Z 21003KT 18/17 A2994 RMK A01 T01760172  RH  100%=      5-min Rain = 0
KTUR 241225Z 26002KT 18/17 A2995 RMK A01 T01770173  RH  100%=      5-min Rain = 0
KTUR 241230Z 29004KT 18/17 A2995 RMK A01 T01770173  RH  100%=      5-min Rain = 0
KTUR 241235Z 29003KT 18/17 A2995 RMK A01 T01780174  RH  100%=      5-min Rain = 0
KTUR 241240Z 30002KT 18/17 A2996 RMK A01 T01780174  RH  100%=      5-min Rain = 0
KTUR 241245Z 31003KT 18/18 A2995 RMK A01 T01790175  RH  100%=      5-min Rain = 0
KTUR 241250Z 31004KT 18/18 A2996 RMK A01 T01790175  RH  100%=      5-min Rain = 0
KTUR 241255Z 31003KT 18/17 A2996 RMK A01 T01780174  RH  100%=      5-min Rain = 0
KTUR 241300Z 30003KT 18/18 A2996 RMK A01 T01800176  RH  100%=      5-min Rain = 0
KTUR 241305Z 32002KT 18/18 A2996 RMK A01 T01800176  RH  100%=      5-min Rain = 0
KTUR 241310Z 32003KT 18/18 A2996 RMK A01 T01810177  RH  100%=      5-min Rain = 0
KTUR 241315Z 31002KT 18/18 A2996 RMK A01 T01810177  RH  100%=      5-min Rain = 0
KTUR 241320Z 31001KT 18/18 A2996 RMK A01 T01820178  RH  100%=      5-min Rain = 0
KTUR 241325Z 33001KT 18/18 A2996 RMK A01 T01820178  RH  100%=      5-min Rain = 0
KTUR 241330Z 31001KT 18/18 A2996 RMK A01 T01840180  RH  100%=      5-min Rain = 0
KTUR 241335Z 30002KT 18/18 A2996 RMK A01 T01840180  RH  100%=      5-min Rain = 0
KTUR 241340Z 28002KT 19/18 A2996 RMK A01 T01850181  RH  100%=      5-min Rain = 0
KTUR 241345Z 31002KT 19/18 A2996 RMK A01 T01860182  RH  100%=      5-min Rain = 0
KTUR 241350Z 32003KT 19/18 A2996 RMK A01 T01850180  RH  100%=      5-min Rain = 0
KTUR 241355Z 32003KT 18/18 A2996 RMK A01 T01840180  RH  100%=      5-min Rain = 0
KTUR 241400Z 33003KT 19/18 A2996 RMK A01 T01850180  RH  100%=      5-min Rain = 0
KTUR 241405Z 35002KT 19/18 A2996 RMK A01 T01860181  RH  100%=      5-min Rain = 0
KTUR 241410Z 35003KT 19/18 A2996 RMK A01 T01860181  RH  099%=      5-min Rain = 0
KTUR 241415Z 32002KT 19/18 A2996 RMK A01 T01860181  RH  099%=      5-min Rain = 0
KTUR 241420Z 30003KT 19/18 A2996 RMK A01 T01870180  RH  098%=      5-min Rain = 0
KTUR 241425Z 29004KT 19/18 A2997 RMK A01 T01870178  RH  097%=      5-min Rain = 0
KTUR 241430Z 31003KT 19/18 A2997 RMK A01 T01870178  RH  097%=      5-min Rain = 0
KTUR 241435Z 30004KT 19/18 A2997 RMK A01 T01870178  RH  097%=      5-min Rain = 0
KTUR 241440Z 30004KT 19/18 A2997 RMK A01 T01870177  RH  096%=      5-min Rain = 0
KTUR 241445Z 29004KT 19/18 A2997 RMK A01 T01870177  RH  097%=      5-min Rain = 0
KTUR 241450Z 30003KT 19/18 A2997 RMK A01 T01870178  RH  097%=      5-min Rain = 0
KTUR 241455Z 31003KT 19/18 A2997 RMK A01 T01860177  RH  097%=      5-min Rain = 0
KTUR 241500Z 34002KT 19/18 A2996 RMK A01 T01870177  RH  096%=      5-min Rain = 0
KTUR 241505Z 02002KT 19/18 A2996 RMK A01 T01900180  RH  096%=      5-min Rain = 0
KTUR 241510Z 02002KT 19/18 A2996 RMK A01 T01930182  RH  095%=      5-min Rain = 0
KTUR 241515Z 01002KT 20/18 A2996 RMK A01 T01960183  RH  095%=      5-min Rain = 0
KTUR 241520Z 33001KT 20/18 A2996 RMK A01 T01970183  RH  094%=      5-min Rain = 0
KTUR 241525Z 03001KT 20/19 A2996 RMK A01 T01990185  RH  094%=      5-min Rain = 0
KTUR 241530Z 05000KT 20/19 A2996 RMK A01 T02000185  RH  094%=      5-min Rain = 0
KTUR 241535Z 04000KT 20/19 A2996 RMK A01 T02000185  RH  093%=      5-min Rain = 0
KTUR 241540Z 04000KT 20/19 A2996 RMK A01 T02020188  RH  094%=      5-min Rain = 0
KTUR 241545Z 08001KT 20/19 A2996 RMK A01 T02030188  RH  093%=      5-min Rain = 0
KTUR 241550Z 08001KT 20/19 A2996 RMK A01 T02020188  RH  094%=      5-min Rain = 0
KTUR 241555Z 08000KT 20/19 A2996 RMK A01 T02030188  RH  094%=      5-min Rain = 0
KTUR 241600Z 00000KT 20/19 A2996 RMK A01 T02040189  RH  094%=      5-min Rain = 0
KTUR 241605Z 08000KT 21/19 A2996 RMK A01 T02050190  RH  094%=      5-min Rain = 0
KTUR 241610Z 08000KT 21/19 A2996 RMK A01 T02050190  RH  093%=      5-min Rain = 0
KTUR 241615Z 35001KT 21/19 A2996 RMK A01 T02050190  RH  093%=      5-min Rain = 0
KTUR 241620Z 32002KT 21/19 A2996 RMK A01 T02060191  RH  094%=      5-min Rain = 0
KTUR 241625Z 32003KT 21/19 A2996 RMK A01 T02060192  RH  094%=      5-min Rain = 0
KTUR 241630Z 33003KT 21/19 A2996 RMK A01 T02060191  RH  094%=      5-min Rain = 0
KTUR 241635Z 34003KT 21/19 A2996 RMK A01 T02060192  RH  094%=      5-min Rain = 0
KTUR 241640Z 33004KT 21/19 A2996 RMK A01 T02070192  RH  094%=      5-min Rain = 0
KTUR 241645Z 32003KT 21/19 A2996 RMK A01 T02070192  RH  093%=      5-min Rain = 0
KTUR 241650Z 32003KT 21/19 A2996 RMK A01 T02080193  RH  093%=      5-min Rain = 0
KTUR 241655Z 33003KT 21/20 A2996 RMK A01 T02100195  RH  094%=      5-min Rain = 0
KTUR 241700Z 35003KT 21/20 A2996 RMK A01 T02120196  RH  094%=      5-min Rain = 0
KTUR 241705Z 02002KT 21/20 A2996 RMK A01 T02130197  RH  093%=      5-min Rain = 0
KTUR 241710Z 05002KT 21/20 A2996 RMK A01 T02140198  RH  093%=      5-min Rain = 0
KTUR 241715Z 07002KT 22/20 A2996 RMK A01 T02170200  RH  092%=      5-min Rain = 0
KTUR 241720Z 15007KT 22/20 A2996 RMK A01 T02230204  RH  091%=      5-min Rain = 0
KTUR 241725Z 15008KT 23/21 A2995 RMK A01 T02320206  RH  088%=      5-min Rain = 0
KTUR 241730Z 15010KT 23/21 A2995 RMK A01 T02340206  RH  087%=      5-min Rain = 0
KTUR 241735Z 15013KT 24/20 A2995 RMK A01 T02350204  RH  085%=      5-min Rain = 0
KTUR 241740Z 15012KT 24/21 A2995 RMK A01 T02360205  RH  085%=      5-min Rain = 0
KTUR 241745Z 15013G19KT 24/20 A2995 RMK A01 T02370204  RH  084%=      5-min Rain = 0
KTUR 241750Z 15012G18KT 24/21 A2995 RMK A01 T02380206  RH  085%=      5-min Rain = 0
KTUR 241755Z 16015KT 24/20 A2995 RMK A01 T02400204  RH  083%=      5-min Rain = 0
KTUR 241800Z 16014G19KT 24/21 A2995 RMK A01 T02430206  RH  082%=      5-min Rain = 0
KTUR 241805Z 16014KT 24/21 A2995 RMK A01 T02430205  RH  082%=      5-min Rain = 0
KTUR 241810Z 16014KT 24/21 A2995 RMK A01 T02430205  RH  082%=      5-min Rain = 0
KTUR 241815Z 16012G17KT 24/21 A2994 RMK A01 T02440206  RH  082%=      5-min Rain = 0
KTUR 241820Z 15013KT 24/21 A2994 RMK A01 T02430205  RH  082%=      5-min Rain = 0
KTUR 241825Z 16013KT 25/21 A2994 RMK A01 T02480206  RH  080%=      5-min Rain = 0
KTUR 241830Z 16011G17KT 25/21 A2994 RMK A01 T02490206  RH  079%=      5-min Rain = 0
KTUR 241835Z 16011KT 25/21 A2994 RMK A01 T02500207  RH  079%=      5-min Rain = 0
KTUR 241840Z 16013KT 25/20 A2994 RMK A01 T02470204  RH  079%=      5-min Rain = 0
KTUR 241845Z 15010KT 25/21 A2993 RMK A01 T02470205  RH  080%=      5-min Rain = 0
KTUR 241850Z 15009KT 25/21 A2993 RMK A01 T02470207  RH  080%=      5-min Rain = 0
KTUR 241855Z 16006KT 25/21 A2993 RMK A01 T02460206  RH  081%=      5-min Rain = 0
KTUR 241900Z 12004KT 24/20 A2993 RMK A01 T02410201  RH  081%=      5-min Rain = 0
KTUR 241905Z 34004KT 22/19 A2993 RMK A01 T02180193  RH  088%=      5-min Rain = 0
KTUR 241910Z 33002KT 21/19 A2994 RMK A01 T02130193  RH  091%=      5-min Rain = 0
KTUR 241915Z 32003KT 21/19 A2994 RMK A01 T02120194  RH  092%=      5-min Rain = 0
KTUR 241920Z 33007KT 21/19 A2993 RMK A01 T02100193  RH  092%=      5-min Rain = 0
KTUR 241925Z 31008KT 21/19 A2993 RMK A01 T02090193  RH  093%=      5-min Rain = 0
KTUR 241930Z 31009KT 21/19 A2993 RMK A01 T02060192  RH  094%=      5-min Rain = 0
KTUR 241935Z 31008KT 21/19 A2993 RMK A01 T02050191  RH  094%=      5-min Rain = 0
KTUR 241940Z 32007KT 21/19 A2992 RMK A01 T02050192  RH  095%=      5-min Rain = 0
KTUR 241945Z 33006KT 20/19 A2991 RMK A01 T02040192  RH  095%=      5-min Rain = 0
KTUR 241950Z 33005KT 20/19 A2992 RMK A01 T02040192  RH  095%=      5-min Rain = 0
KTUR 241955Z 33004KT 20/19 A2992 RMK A01 T02040191  RH  095%=      5-min Rain = 0
KTUR 242000Z 33004KT 20/19 A2992 RMK A01 T02040192  RH  095%=      5-min Rain = 0
KTUR 242005Z 34006KT 20/19 A2992 RMK A01 T02040192  RH  095%=      5-min Rain = 0
KTUR 242010Z 34005KT 20/19 A2992 RMK A01 T02040192  RH  095%=      5-min Rain = 0
KTUR 242015Z 35005KT 20/19 A2992 RMK A01 T02040192  RH  096%=      5-min Rain = 0
KTUR 242020Z 02005KT 20/19 A2991 RMK A01 T02030192  RH  096%=      5-min Rain = 0
KTUR 242025Z 02006KT 20/19 A2991 RMK A01 T02030192  RH  096%=      5-min Rain = 0
KTUR 242030Z 01005KT 20/19 A2991 RMK A01 T02030193  RH  096%=      5-min Rain = 0
KTUR 242035Z 03006KT 20/19 A2991 RMK A01 T02040194  RH  097%=      5-min Rain = 0
KTUR 242040Z 05010G15KT 20/19 A299 RMK A01 T02040194  RH  097%=      5-min Rain = 0
KTUR 242045Z 06012KT 20/20 A299 RMK A01 T02040195  RH  097%=      5-min Rain = 0
KTUR 242050Z 06010KT 21/20 A299 RMK A01 T02050196  RH  097%=      5-min Rain = 0
KTUR 242055Z 05011KT 21/20 A2988 RMK A01 T02050196  RH  097%=      5-min Rain = 0
KTUR 242100Z 05009KT 21/20 A2987 RMK A01 T02080200  RH  097%=      5-min Rain = 0
KTUR 242105Z 08016G25KT 22/21 A2986 RMK A01 T02170206  RH  096%=      5-min Rain = 0
KTUR 242110Z 08025G31KT 22/21 A2982 RMK A01 T02210207  RH  094%=      5-min Rain = 0.01
KTUR 242115Z 09021G28KT 22/20 A2982 RMK A01 T02210200  RH  090%=      5-min Rain = 0.01
KTUR 242120Z 11009G18KT 22/18 A2984 RMK A01 T02210180  RH  080%=      5-min Rain = 0
KTUR 242125Z 28006G11KT 22/18 A2985 RMK A01 T02170184  RH  084%=      5-min Rain = 0
KTUR 242130Z 22009G16KT 21/20 A2988 RMK A01 T02130196  RH  093%=      5-min Rain = 0
KTUR 242135Z 21013G21KT 22/19 A2989 RMK A01 T02190188  RH  085%=      5-min Rain = 0
KTUR 242140Z 19014G19KT 22/19 A2988 RMK A01 T02200190  RH  086%=      5-min Rain = 0
KTUR 242145Z 19014KT 21/18 A2988 RMK A01 T02140181  RH  083%=      5-min Rain = 0
KTUR 242150Z 19015KT 20/16 A2988 RMK A01 T02030161  RH  078%=      5-min Rain = 0
KTUR 242155Z 17012KT 19/15 A2987 RMK A01 T01900150  RH  079%=      5-min Rain = 0
KTUR 242200Z 18011KT 19/15 A2988 RMK A01 T01850148  RH  081%=      5-min Rain = 0
KTUR 242205Z 19008KT 18/15 A2987 RMK A01 T01780148  RH  084%=      5-min Rain = 0
KTUR 242210Z 19010KT 18/15 A2988 RMK A01 T01770148  RH  085%=      5-min Rain = 0
KTUR 242215Z 19011KT 18/15 A2989 RMK A01 T01750148  RH  086%=      5-min Rain = 0
KTUR 242220Z 19009KT 17/15 A2989 RMK A01 T01740147  RH  086%=      5-min Rain = 0
KTUR 242225Z 20007KT 17/15 A2988 RMK A01 T01720145  RH  086%=      5-min Rain = 0
KTUR 242230Z 19007KT 17/15 A2987 RMK A01 T01700146  RH  087%=      5-min Rain = 0
KTUR 242235Z 20010KT 17/15 A2988 RMK A01 T01690147  RH  088%=      5-min Rain = 0
KTUR 242240Z 21011KT 17/15 A2988 RMK A01 T01680146  RH  089%=      5-min Rain = 0
KTUR 242245Z 21008KT 17/14 A2987 RMK A01 T01670144  RH  089%=      5-min Rain = 0
KTUR 242250Z 21007KT 17/14 A2985 RMK A01 T01660144  RH  089%=      5-min Rain = 0
KTUR 242255Z 17008KT 17/15 A2987 RMK A01 T01660147  RH  090%=      5-min Rain = 0
KTUR 242300Z 13007KT 17/15 A2987 RMK A01 T01660147  RH  090%=      5-min Rain = 0
KTUR 242305Z 11005KT 17/15 A2984 RMK A01 T01650145  RH  090%=      5-min Rain = 0
KTUR 242310Z 15009KT 17/15 A2986 RMK A01 T01650148  RH  091%=      5-min Rain = 0
KTUR 242315Z 15008KT 17/15 A2985 RMK A01 T01650148  RH  092%=      5-min Rain = 0
KTUR 242320Z 14008KT 16/15 A2984 RMK A01 T01640149  RH  093%=      5-min Rain = 0
KTUR 242325Z 14011KT 16/15 A2985 RMK A01 T01640151  RH  094%=      5-min Rain = 0
KTUR 242330Z 16011KT 17/15 A2986 RMK A01 T01650151  RH  094%=      5-min Rain = 0
KTUR 242335Z 17011KT 17/15 A2986 RMK A01 T01650152  RH  094%=      5-min Rain = 0
KTUR 242340Z 17011KT 17/15 A2986 RMK A01 T01650151  RH  094%=      5-min Rain = 0
KTUR 242345Z 16010KT 17/15 A2985 RMK A01 T01650153  RH  094%=      5-min Rain = 0
KTUR 242350Z 17009KT 17/15 A2985 RMK A01 T01650153  RH  095%=      5-min Rain = 0
KTUR 242355Z 19007KT 16/15 A2985 RMK A01 T01640153  RH  095%=      5-min Rain = 0
KTUR 250000Z 17006KT 16/15 A2985 RMK A01 T01640153  RH  095%=      5-min Rain = 0
KTUR 250005Z 14007KT 17/15 A2985 RMK A01 T01650154  RH  095%=      5-min Rain = 0
KTUR 250010Z 15009KT 17/15 A2985 RMK A01 T01660154  RH  095%=      5-min Rain = 0
KTUR 250015Z 15009KT 17/15 A2986 RMK A01 T01680154  RH  094%=      5-min Rain = 0
KTUR 250020Z 16008KT 17/16 A2986 RMK A01 T01690155  RH  094%=      5-min Rain = 0
KTUR 250025Z 14010KT 17/16 A2985 RMK A01 T01680155  RH  094%=      5-min Rain = 0
KTUR 250030Z 14012KT 17/16 A2984 RMK A01 T01680156  RH  094%=      5-min Rain = 0
KTUR 250035Z 19010G15KT 17/16 A2986 RMK A01 T01690156  RH  094%=      5-min Rain = 0
KTUR 250040Z 19007KT 17/16 A2985 RMK A01 T01680156  RH  095%=      5-min Rain = 0
KTUR 250045Z 05006G11KT 17/16 A2981 RMK A01 T01680156  RH  095%=      5-min Rain = 0
KTUR 250050Z 12009KT 17/16 A2984 RMK A01 T01680157  RH  095%=      5-min Rain = 0
KTUR 250055Z 17004G10KT 17/16 A2986 RMK A01 T01700158  RH  095%=      5-min Rain = 0
KTUR 250100Z 17008G13KT 17/16 A2985 RMK A01 T01700158  RH  095%=      5-min Rain = 0
KTUR 250105Z 16008G13KT 17/16 A2985 RMK A01 T01680157  RH  095%=      5-min Rain = 0
KTUR 250110Z 11009G15KT 17/16 A2985 RMK A01 T01690159  RH  096%=      5-min Rain = 0
KTUR 250115Z 10009G15KT 17/16 A2986 RMK A01 T01700159  RH  096%=      5-min Rain = 0
KTUR 250120Z 12010G17KT 17/16 A2987 RMK A01 T01720160  RH  095%=      5-min Rain = 0
KTUR 250125Z 11007KT 17/16 A2987 RMK A01 T01730160  RH  094%=      5-min Rain = 0
KTUR 250130Z 07005G11KT 17/16 A2987 RMK A01 T01740161  RH  094%=      5-min Rain = 0
KTUR 250135Z 10010KT 18/16 A2985 RMK A01 T01750161  RH  094%=      5-min Rain = 0
KTUR 250140Z 12007G13KT 18/16 A2987 RMK A01 T01750161  RH  093%=      5-min Rain = 0
KTUR 250145Z 11010KT 18/16 A2987 RMK A01 T01760161  RH  094%=      5-min Rain = 0
KTUR 250150Z 11010G16KT 18/16 A2986 RMK A01 T01760161  RH  093%=      5-min Rain = 0
KTUR 250155Z 12015KT 18/16 A2987 RMK A01 T01780161  RH  092%=      5-min Rain = 0
KTUR 250200Z 11019G26KT 18/16 A2984 RMK A01 T01780161  RH  092%=      5-min Rain = 0.01
KTUR 250205Z 15018G27KT 18/16 A2986 RMK A01 T01790157  RH  089%=      5-min Rain = 0
KTUR 250210Z 20013KT 18/16 A2988 RMK A01 T01780156  RH  089%=      5-min Rain = 0
KTUR 250215Z 15012KT 18/16 A2984 RMK A01 T01770155  RH  089%=      5-min Rain = 0
KTUR 250220Z 16012KT 18/16 A2985 RMK A01 T01780155  RH  088%=      5-min Rain = 0
KTUR 250225Z 16010KT 18/16 A2988 RMK A01 T01770156  RH  089%=      5-min Rain = 0
KTUR 250230Z 13013KT 18/16 A2988 RMK A01 T01750157  RH  091%=      5-min Rain = 0
KTUR 250235Z 13014G19KT 17/16 A2989 RMK A01 T01740156  RH  091%=      5-min Rain = 0
KTUR 250240Z 15013KT 18/15 A299 RMK A01 T01760153  RH  089%=      5-min Rain = 0
KTUR 250245Z 14012KT 18/15 A2989 RMK A01 T01770152  RH  087%=      5-min Rain = 0
KTUR 250250Z 13014G19KT 18/15 A2987 RMK A01 T01790151  RH  085%=      5-min Rain = 0
KTUR 250255Z 14019KT 18/15 A2988 RMK A01 T01820150  RH  084%=      5-min Rain = 0
KTUR 250300Z 13014G20KT 18/15 A2988 RMK A01 T01810150  RH  084%=      5-min Rain = 0
KTUR 250305Z 13012KT 18/15 A2988 RMK A01 T01770152  RH  087%=      5-min Rain = 0
KTUR 250310Z 14014G19KT 18/15 A2987 RMK A01 T01800150  RH  084%=      5-min Rain = 0
KTUR 250315Z 14014G19KT 18/15 A2987 RMK A01 T01820147  RH  082%=      5-min Rain = 0
KTUR 250320Z 15016KT 18/15 A2987 RMK A01 T01810147  RH  082%=      5-min Rain = 0
KTUR 250325Z 16016KT 18/15 A2988 RMK A01 T01790147  RH  083%=      5-min Rain = 0
KTUR 250330Z 17015KT 18/15 A2989 RMK A01 T01780149  RH  085%=      5-min Rain = 0
KTUR 250335Z 18013KT 18/15 A2989 RMK A01 T01780150  RH  086%=      5-min Rain = 0
KTUR 250340Z 18013KT 18/15 A2989 RMK A01 T01770152  RH  087%=      5-min Rain = 0
KTUR 250345Z 18012KT 18/16 A299 RMK A01 T01780155  RH  088%=      5-min Rain = 0
KTUR 250350Z 17011KT 18/16 A299 RMK A01 T01800157  RH  088%=      5-min Rain = 0
KTUR 250355Z 17011KT 18/16 A2991 RMK A01 T01810158  RH  088%=      5-min Rain = 0
KTUR 250400Z 18010KT 18/16 A2991 RMK A01 T01810159  RH  089%=      5-min Rain = 0
KTUR 250405Z 18011KT 18/16 A2992 RMK A01 T01820159  RH  088%=      5-min Rain = 0
KTUR 250410Z 19011KT 18/16 A2993 RMK A01 T01840160  RH  088%=      5-min Rain = 0
KTUR 250415Z 20010KT 18/16 A2994 RMK A01 T01820161  RH  089%=      5-min Rain = 0
KTUR 250420Z 18011KT 18/16 A2995 RMK A01 T01830161  RH  089%=      5-min Rain = 0
KTUR 250425Z 17012KT 19/16 A2996 RMK A01 T01860163  RH  088%=      5-min Rain = 0
KTUR 250430Z 16012KT 19/16 A2996 RMK A01 T01890164  RH  087%=      5-min Rain = 0
KTUR 250435Z 15012KT 19/16 A2997 RMK A01 T01880163  RH  088%=      5-min Rain = 0
KTUR 250440Z 16012KT 19/16 A2997 RMK A01 T01860163  RH  088%=      5-min Rain = 0
KTUR 250445Z 16011KT 19/16 A2997 RMK A01 T01880164  RH  088%=      5-min Rain = 0
KTUR 250450Z 16008KT 19/16 A2997 RMK A01 T01880164  RH  088%=      5-min Rain = 0
KTUR 250455Z 16008KT 19/17 A2998 RMK A01 T01860165  RH  089%=      5-min Rain = 0

Page generated in 0.0456 seconds.